Time;durP1;ratioP1;P1;durP2;ratioP2;P2;SDS_P1;SDS_P2;PMS_P1;PMS_P2;Temp;Humidity;BMP_temperature;BMP_pressure;BME280_temperature;BME280_humidity;BME280_pressure;Samples;Min_cycle;Max_cycle;Signal;HPM_P1;HPM_P2
2021/12/19 00:00:28;;;;;;;19.00;6.50;;;;;;;4.65;88.56;103839.00;5007572;28;20030;-68
2021/12/19 00:10:59;;;;;;;11.30;4.85;;;;;;;4.68;88.29;103820.84;5032289;28;20048;-67
2021/12/19 00:13:25;;;;;;;11.25;5.10;;;;;;;4.67;88.30;103817.31;5020976;28;20025;-68
2021/12/19 00:15:52;;;;;;;12.32;5.45;;;;;;;4.60;88.46;103804.88;5011996;28;20026;-68
2021/12/19 00:18:17;;;;;;;7.50;4.43;;;;;;;4.60;88.60;103804.00;5011437;28;20040;-69
2021/12/19 00:20:42;;;;;;;16.52;6.25;;;;;;;4.58;88.56;103805.66;5012585;28;20022;-68
2021/12/19 00:23:08;;;;;;;13.60;6.13;;;;;;;4.60;88.83;103794.41;5012425;28;20502;-69
2021/12/19 00:25:34;;;;;;;11.05;4.45;;;;;;;4.64;88.68;103801.53;5012345;28;20056;-68
2021/12/19 00:27:59;;;;;;;12.27;5.10;;;;;;;4.65;88.65;103798.13;5010152;28;20041;-69
2021/12/19 00:30:25;;;;;;;10.20;5.55;;;;;;;4.68;88.78;103798.22;5012204;28;20029;-67
2021/12/19 00:32:50;;;;;;;12.15;5.05;;;;;;;4.67;88.89;103795.56;5018530;28;20472;-68
2021/12/19 00:35:16;;;;;;;16.65;6.70;;;;;;;4.67;88.77;103793.81;5011242;28;20489;-68
2021/12/19 00:37:41;;;;;;;11.50;5.68;;;;;;;4.72;88.84;103798.34;5009688;28;20029;-68
2021/12/19 00:40:07;;;;;;;11.40;5.97;;;;;;;4.67;88.84;103796.44;5011142;28;20100;-69
2021/12/19 00:42:35;;;;;;;15.50;5.53;;;;;;;4.66;88.75;103788.53;5009878;28;20469;-70
2021/12/19 00:45:16;;;;;;;14.00;5.30;;;;;;;4.71;88.78;103791.31;5011156;28;20511;-69
2021/12/19 00:47:43;;;;;;;15.13;5.45;;;;;;;4.70;88.82;103789.56;4995782;28;20026;-70
2021/12/19 00:50:09;;;;;;;15.57;5.50;;;;;;;4.77;88.67;103786.34;5011725;28;20033;-68
2021/12/19 00:52:34;;;;;;;15.20;5.53;;;;;;;4.77;88.51;103782.03;5011763;28;20389;-69
2021/12/19 00:55:00;;;;;;;15.02;6.15;;;;;;;4.78;88.55;103778.56;5018884;28;20107;-68
2021/12/19 00:57:25;;;;;;;15.15;6.05;;;;;;;4.76;88.64;103775.00;5029691;28;20052;-68
2021/12/19 00:59:50;;;;;;;15.18;6.03;;;;;;;4.75;88.64;103778.44;5023398;28;20108;-68
2021/12/19 01:02:16;;;;;;;17.52;7.10;;;;;;;4.71;88.75;103779.16;5011944;28;20022;-68
2021/12/19 01:04:41;;;;;;;21.25;6.88;;;;;;;4.70;88.85;103769.56;5010787;28;20436;-69
2021/12/19 01:07:07;;;;;;;17.33;5.40;;;;;;;4.73;89.13;103766.16;5011290;28;20042;-69
2021/12/19 01:09:32;;;;;;;30.92;7.65;;;;;;;4.71;89.12;103768.72;5011573;28;20438;-68
2021/12/19 01:11:57;;;;;;;15.95;6.75;;;;;;;4.82;89.29;103768.22;5009531;28;20021;-69
2021/12/19 01:14:23;;;;;;;13.43;5.93;;;;;;;4.86;88.98;103760.56;5011599;28;20022;-68
2021/12/19 01:16:48;;;;;;;16.08;5.22;;;;;;;4.86;89.28;103760.56;5009995;28;20486;-67
2021/12/19 01:19:14;;;;;;;15.02;6.13;;;;;;;4.89;89.22;103765.91;5011180;28;20110;-69
2021/12/19 01:21:39;;;;;;;16.45;4.97;;;;;;;4.94;89.37;103758.25;5011638;28;20030;-69
2021/12/19 01:24:05;;;;;;;14.93;4.57;;;;;;;4.97;89.54;103763.56;5011035;28;20109;-70
2021/12/19 01:26:30;;;;;;;22.65;6.03;;;;;;;4.97;89.62;103763.56;5010860;28;20022;-69
2021/12/19 01:28:56;;;;;;;19.33;5.97;;;;;;;5.02;89.46;103762.03;5010074;28;20460;-68
2021/12/19 01:31:21;;;;;;;18.27;5.88;;;;;;;5.06;89.42;103749.97;5010638;28;20036;-68
2021/12/19 01:33:46;;;;;;;14.68;5.07;;;;;;;5.03;89.67;103758.56;5010270;28;20105;-68
2021/12/19 01:36:12;;;;;;;20.33;6.95;;;;;;;5.06;89.57;103749.97;5010407;28;20026;-68
2021/12/19 01:38:38;;;;;;;16.77;5.60;;;;;;;5.09;89.59;103749.19;5011249;28;20504;-68
2021/12/19 01:41:03;;;;;;;30.42;7.50;;;;;;;5.05;89.58;103743.84;5010085;28;20013;-69
2021/12/19 01:43:31;;;;;;;12.77;4.90;;;;;;;5.07;89.56;103738.66;5010392;28;20040;-69
2021/12/19 01:45:57;;;;;;;17.10;6.72;;;;;;;5.09;89.54;103741.34;5011024;28;20492;-70
2021/12/19 01:48:23;;;;;;;13.88;5.07;;;;;;;5.14;89.48;103743.28;5010253;28;20025;-68
2021/12/19 01:50:50;;;;;;;22.45;6.15;;;;;;;5.16;89.33;103744.25;5010056;28;20036;-69
2021/12/19 01:53:15;;;;;;;14.85;4.47;;;;;;;5.15;89.66;103739.81;5010595;28;20078;-69
2021/12/19 01:55:42;;;;;;;18.65;5.20;;;;;;;5.24;89.64;103727.94;5011183;28;20117;-68
2021/12/19 01:58:08;;;;;;;15.10;4.85;;;;;;;5.30;89.64;103739.47;5009681;28;20087;-69
2021/12/19 02:00:38;;;;;;;14.55;4.70;;;;;;;5.35;89.60;103736.13;5012770;28;20029;-69
2021/12/19 02:03:05;;;;;;;12.30;4.43;;;;;;;5.36;89.65;103737.94;5028995;28;20297;-68
2021/12/19 02:05:30;;;;;;;9.93;3.90;;;;;;;5.40;89.59;103735.47;5029357;28;20485;-68
2021/12/19 02:07:57;;;;;;;6.82;2.45;;;;;;;5.39;89.42;103735.41;5028628;28;20080;-68
2021/12/19 02:10:25;;;;;;;3.30;2.10;;;;;;;5.38;89.25;103738.84;5030261;28;20060;-67
2021/12/19 02:12:52;;;;;;;4.40;2.03;;;;;;;5.33;89.30;103729.97;5027464;22;20117;-59
2021/12/19 02:15:20;;;;;;;8.20;2.58;;;;;;;5.33;89.41;103732.59;4988870;28;20707;-59
2021/12/19 02:17:48;;;;;;;6.47;2.92;;;;;;;5.35;89.45;103723.94;5003988;28;20036;-59
2021/12/19 02:20:15;;;;;;;8.30;3.72;;;;;;;5.37;89.60;103729.22;5005939;28;20006;-59
2021/12/19 02:22:41;;;;;;;10.13;3.72;;;;;;;5.42;89.63;103725.06;4983430;28;20037;-59
2021/12/19 02:25:07;;;;;;;12.05;4.30;;;;;;;5.42;89.57;103725.94;4987512;28;20007;-62
2021/12/19 02:27:33;;;;;;;7.60;2.78;;;;;;;5.47;89.22;103720.88;4999109;28;20345;-59
2021/12/19 02:29:58;;;;;;;6.15;2.70;;;;;;;5.43;89.33;103716.38;5006057;28;20106;-60
2021/12/19 02:32:26;;;;;;;6.72;2.60;;;;;;;5.44;89.47;103712.91;5020871;28;20052;-60
2021/12/19 02:34:54;;;;;;;4.28;2.33;;;;;;;5.41;89.53;103716.31;5025828;28;20037;-60
2021/12/19 02:37:52;;;;;;;4.07;2.20;;;;;;;5.42;89.55;103706.75;5025116;28;20120;-59
2021/12/19 02:48:21;;;;;;;4.20;1.90;;;;;;;5.46;89.74;103706.03;4967674;28;20432;-60
2021/12/19 02:50:51;;;;;;;3.90;2.20;;;;;;;5.50;89.66;103704.38;5007845;28;20370;-59
2021/12/19 02:53:32;;;;;;;4.53;2.10;;;;;;;5.45;89.74;103693.78;5006016;28;20030;-61
2021/12/19 02:55:59;;;;;;;3.72;2.25;;;;;;;5.42;89.88;103689.31;5004759;28;20034;-59
2021/12/19 02:58:25;;;;;;;6.57;2.50;;;;;;;5.39;89.87;103680.50;4988713;28;20381;-60
2021/12/19 03:00:51;;;;;;;4.00;1.80;;;;;;;5.49;89.80;103677.34;5006513;28;20817;-61
2021/12/19 03:03:16;;;;;;;3.65;1.55;;;;;;;5.48;89.73;103675.56;5006904;28;20168;-60
2021/12/19 03:05:41;;;;;;;4.25;1.70;;;;;;;5.50;89.58;103670.38;5006767;28;20530;-60
2021/12/19 03:08:08;;;;;;;4.55;1.92;;;;;;;5.51;89.68;103666.94;4988485;28;20076;-61
2021/12/19 03:11:18;;;;;;;2.55;1.52;;;;;;;5.50;89.61;103654.69;4988054;28;20316;-61
2021/12/19 03:13:48;;;;;;;3.95;2.10;;;;;;;5.49;89.70;103656.44;5005476;28;20144;-60
2021/12/19 03:18:59;;;;;;;10.63;3.10;;;;;;;5.57;89.90;103654.06;5006018;28;20132;-60
2021/12/19 03:21:25;;;;;;;25.92;3.67;;;;;;;5.60;89.76;103645.44;4988718;28;20033;-60
2021/12/19 03:23:51;;;;;;;9.00;4.10;;;;;;;5.61;89.92;103642.88;5006204;28;20053;-61
2021/12/19 03:26:17;;;;;;;13.73;3.75;;;;;;;5.66;90.01;103635.16;5005434;28;20025;-59
2021/12/19 03:28:42;;;;;;;10.43;4.18;;;;;;;5.67;89.69;103629.09;5005741;28;20373;-60
2021/12/19 03:31:08;;;;;;;7.10;3.42;;;;;;;5.65;89.81;103630.75;5005873;28;20592;-61
2021/12/19 03:33:35;;;;;;;15.38;4.13;;;;;;;5.65;89.78;103620.28;5005114;28;20388;-59
2021/12/19 03:36:02;;;;;;;9.38;3.45;;;;;;;5.68;89.73;103618.66;5005859;28;20083;-59
2021/12/19 03:38:28;;;;;;;11.68;3.42;;;;;;;5.69;89.65;103615.22;5005875;28;20550;-60
2021/12/19 03:41:08;;;;;;;7.03;3.40;;;;;;;5.70;89.65;103621.34;5004276;28;20041;-60
2021/12/19 03:43:34;;;;;;;17.52;4.25;;;;;;;5.71;89.72;103611.75;5005602;28;20028;-60
2021/12/19 03:45:59;;;;;;;11.32;3.80;;;;;;;5.69;89.93;103604.75;4986964;28;20407;-61
2021/12/19 03:48:24;;;;;;;21.55;4.88;;;;;;;5.71;89.87;103619.59;4988236;28;20029;-60
2021/12/19 03:50:50;;;;;;;16.17;4.75;;;;;;;5.65;90.15;103613.34;5005600;28;20024;-60
2021/12/19 03:53:17;;;;;;;9.02;3.92;;;;;;;5.72;89.98;103617.03;5006135;28;20026;-60
2021/12/19 03:55:44;;;;;;;11.63;3.92;;;;;;;5.74;89.85;103622.31;5005348;28;20033;-60
2021/12/19 03:58:09;;;;;;;8.70;3.72;;;;;;;5.71;90.08;103615.25;5005750;28;20504;-60
2021/12/19 04:00:35;;;;;;;9.13;3.35;;;;;;;5.73;89.81;103616.22;5005591;28;20062;-60
2021/12/19 04:03:04;;;;;;;9.43;2.83;;;;;;;5.77;89.87;103607.59;5004667;28;20022;-60
2021/12/19 04:05:30;;;;;;;7.65;3.00;;;;;;;5.75;89.95;103603.16;5005290;28;20117;-59
2021/12/19 04:07:56;;;;;;;5.88;2.38;;;;;;;5.74;89.79;103594.44;5005443;28;20405;-59
2021/12/19 04:10:22;;;;;;;6.43;2.40;;;;;;;5.78;89.64;103593.66;5005649;28;20046;-59
2021/12/19 04:12:48;;;;;;;4.47;2.35;;;;;;;5.77;89.61;103591.00;5006630;28;20119;-61
2021/12/19 04:15:14;;;;;;;3.33;2.17;;;;;;;5.76;89.77;103587.53;5025227;28;20483;-60
2021/12/19 04:17:39;;;;;;;5.07;2.35;;;;;;;5.78;89.82;103588.44;5024657;28;20025;-58
2021/12/19 04:20:05;;;;;;;6.18;2.17;;;;;;;5.73;89.81;103578.69;4984645;28;20030;-60
2021/12/19 04:22:31;;;;;;;6.15;2.65;;;;;;;5.70;89.98;103579.47;4985826;28;20034;-60
2021/12/19 04:24:56;;;;;;;4.95;2.33;;;;;;;5.78;90.08;103583.22;4985430;28;20036;-60
2021/12/19 04:27:22;;;;;;;4.75;2.20;;;;;;;5.81;90.02;103574.59;4985096;28;20065;-61
2021/12/19 04:29:49;;;;;;;5.18;2.03;;;;;;;5.83;90.00;103580.72;4991655;28;20030;-60
2021/12/19 04:32:17;;;;;;;1.92;1.38;;;;;;;5.88;89.77;103575.63;5000216;28;20448;-61
2021/12/19 04:34:42;;;;;;;4.03;1.92;;;;;;;5.88;89.61;103573.94;4985939;28;20085;-59
2021/12/19 04:40:08;;;;;;;4.50;2.13;;;;;;;5.85;89.91;103567.69;4977823;28;20035;-61
2021/12/19 04:53:21;;;;;;;8.25;3.17;;;;;;;5.89;89.72;103554.75;5006582;28;20400;-60
2021/12/19 05:01:14;;;;;;;8.35;3.55;;;;;;;5.92;89.87;103549.59;5007732;28;20022;-60
2021/12/19 05:14:20;;;;;;;10.95;3.55;;;;;;;6.01;89.69;103556.84;5007035;28;20076;-61
2021/12/19 05:16:47;;;;;;;8.40;3.80;;;;;;;6.04;89.62;103564.81;5007772;28;20079;-60
2021/12/19 05:19:27;;;;;;;9.13;3.83;;;;;;;6.02;89.75;103570.81;5007763;28;20052;-60
2021/12/19 05:21:57;;;;;;;10.38;4.50;;;;;;;6.04;89.83;103562.22;5007966;28;20216;-60
2021/12/19 05:27:04;;;;;;;9.80;4.13;;;;;;;5.96;89.58;103561.03;5006400;28;20064;-60
2021/12/19 05:29:31;;;;;;;6.35;3.22;;;;;;;5.93;89.79;103556.59;4992024;28;20042;-59
2021/12/19 05:31:56;;;;;;;7.40;3.70;;;;;;;5.95;89.55;103548.81;5007540;28;20030;-60
2021/12/19 05:34:21;;;;;;;5.95;3.13;;;;;;;5.98;89.03;103556.75;5006724;28;20056;-59
2021/12/19 05:47:24;;;;;;;3.67;2.00;;;;;;;5.81;89.11;103561.50;5007780;28;20117;-60
2021/12/19 05:49:50;;;;;;;4.10;2.05;;;;;;;5.84;89.17;103555.47;5006935;28;20491;-60
2021/12/19 05:52:15;;;;;;;3.97;2.25;;;;;;;5.86;89.23;103551.16;5007499;28;20050;-60
2021/12/19 05:54:41;;;;;;;5.65;2.50;;;;;;;5.86;89.18;103553.75;5007798;28;20423;-61
2021/12/19 05:57:06;;;;;;;6.43;2.45;;;;;;;5.86;89.31;103551.16;5006711;28;20546;-61
2021/12/19 05:59:32;;;;;;;6.38;2.85;;;;;;;5.86;89.44;103549.44;5007076;28;20105;-58
2021/12/19 06:01:57;;;;;;;6.78;2.45;;;;;;;5.88;89.35;103546.84;5006921;28;20024;-59
2021/12/19 06:04:22;;;;;;;8.55;3.40;;;;;;;5.82;89.69;103535.34;5006440;28;20054;-58
2021/12/19 06:06:48;;;;;;;5.60;2.42;;;;;;;5.88;89.64;103531.16;5007069;28;20026;-60
2021/12/19 06:09:14;;;;;;;4.30;2.38;;;;;;;5.87;89.22;103530.25;5008058;28;20120;-59
2021/12/19 06:11:39;;;;;;;2.40;1.48;;;;;;;5.86;89.37;103522.34;5000395;28;20046;-59
2021/12/19 06:14:05;;;;;;;1.90;1.00;;;;;;;5.89;89.46;103525.06;5008941;28;20601;-59
2021/12/19 06:16:30;;;;;;;1.20;0.93;;;;;;;5.90;89.26;103519.00;5003518;28;20053;-59
2021/12/19 06:18:56;;;;;;;1.75;0.95;;;;;;;5.85;89.31;103526.72;4982966;28;20663;-61
2021/12/19 06:21:21;;;;;;;1.85;1.10;;;;;;;5.86;89.37;103522.34;5004860;28;20478;-61
2021/12/19 06:23:46;;;;;;;7.38;1.95;;;;;;;5.84;89.43;103529.28;5000676;28;20025;-62
2021/12/19 06:26:12;;;;;;;4.97;1.52;;;;;;;5.84;89.55;103526.69;5001214;28;20026;-61
2021/12/19 06:28:38;;;;;;;2.08;1.48;;;;;;;5.82;89.66;103519.66;5004353;28;20168;-59
2021/12/19 06:31:03;;;;;;;2.72;1.92;;;;;;;5.86;89.42;103517.13;5025756;28;20031;-60
2021/12/19 06:33:29;;;;;;;5.35;3.63;;;;;;;5.91;89.62;103513.81;5007970;28;20033;-59
2021/12/19 06:35:54;;;;;;;2.70;1.08;;;;;;;5.92;89.71;103512.97;4999688;28;20038;-61
2021/12/19 06:38:20;;;;;;;5.88;1.83;;;;;;;5.92;89.63;103512.06;5002316;28;20030;-60
2021/12/19 06:40:45;;;;;;;3.03;1.80;;;;;;;5.89;89.80;103512.88;5007879;28;20030;-60
2021/12/19 06:43:10;;;;;;;5.57;2.10;;;;;;;5.89;89.85;103501.50;5007068;28;20026;-61
2021/12/19 06:45:36;;;;;;;3.10;1.80;;;;;;;5.94;89.83;103502.53;4988241;28;20056;-59
2021/12/19 06:48:01;;;;;;;3.88;2.42;;;;;;;5.96;89.78;103498.22;5006577;28;20049;-60
2021/12/19 06:50:27;;;;;;;3.78;2.15;;;;;;;5.97;89.53;103493.88;5002104;28;20038;-61
2021/12/19 06:52:52;;;;;;;4.13;2.10;;;;;;;5.96;89.43;103502.59;5005891;28;20472;-59
2021/12/19 06:55:18;;;;;;;2.95;2.05;;;;;;;5.92;89.15;103506.84;5004997;28;20026;-60
2021/12/19 06:57:44;;;;;;;3.38;1.70;;;;;;;5.96;89.12;103502.59;5006774;28;20443;-58
2021/12/19 07:00:13;;;;;;;4.45;2.40;;;;;;;5.94;89.09;103506.03;5006027;28;20029;-60
2021/12/19 07:02:39;;;;;;;3.50;1.73;;;;;;;5.90;89.02;103500.69;5006346;28;20026;-59
2021/12/19 07:05:04;;;;;;;3.08;1.40;;;;;;;5.92;88.64;103486.81;5006165;28;20032;-60
2021/12/19 07:07:30;;;;;;;3.28;1.88;;;;;;;5.87;88.58;103500.59;5006117;28;20492;-59
2021/12/19 07:09:56;;;;;;;5.32;1.98;;;;;;;5.80;88.48;103503.03;5006259;28;20361;-60
2021/12/19 07:12:26;;;;;;;6.72;1.98;;;;;;;5.80;88.38;103492.56;5005259;28;20038;-58
2021/12/19 07:14:51;;;;;;;4.70;1.70;;;;;;;5.85;88.34;103495.31;4987814;28;20026;-60
2021/12/19 07:17:16;;;;;;;4.63;2.58;;;;;;;5.81;88.11;103496.09;5005276;28;20120;-60
2021/12/19 07:19:42;;;;;;;3.25;1.90;;;;;;;5.75;88.75;103498.50;4998177;28;20037;-59
2021/12/19 07:22:07;;;;;;;2.40;1.55;;;;;;;5.73;88.92;103500.19;5004485;28;20041;-59
2021/12/19 07:24:32;;;;;;;4.30;1.90;;;;;;;5.68;89.14;103492.19;5001856;28;20068;-59
2021/12/19 07:26:58;;;;;;;6.22;2.22;;;;;;;5.63;89.31;103488.56;5004254;28;20063;-59
2021/12/19 07:29:23;;;;;;;6.50;3.00;;;;;;;5.65;89.27;103487.78;4988648;28;20025;-61
2021/12/19 07:31:48;;;;;;;3.75;2.05;;;;;;;5.70;89.14;103487.91;5005240;28;20050;-60
2021/12/19 07:34:14;;;;;;;6.40;2.60;;;;;;;5.68;89.14;103486.97;5003707;28;20112;-59
2021/12/19 07:36:43;;;;;;;5.78;2.30;;;;;;;5.62;89.47;103486.78;4988824;28;20473;-61
2021/12/19 07:39:20;;;;;;;;;;;;;;;5.65;89.67;103476.41;4990649;28;20026;-59
2021/12/19 07:41:46;;;;;;;7.07;2.35;;;;;;;5.70;89.50;103485.28;4992603;28;19917;-60
2021/12/19 07:44:11;;;;;;;4.68;2.53;;;;;;;5.70;89.14;103485.28;5005968;28;20034;-61
2021/12/19 07:46:36;;;;;;;3.50;1.80;;;;;;;5.73;89.43;103485.38;5005189;28;20121;-60
2021/12/19 07:49:02;;;;;;;5.55;2.40;;;;;;;5.73;89.52;103482.78;5005363;28;20030;-60
2021/12/19 07:51:27;;;;;;;4.32;2.20;;;;;;;5.74;89.39;103484.53;5005223;28;20045;-59
2021/12/19 07:53:53;;;;;;;5.95;1.88;;;;;;;5.76;89.55;103480.25;4996382;28;20030;-60
2021/12/19 07:56:18;;;;;;;5.22;2.35;;;;;;;5.77;89.54;103482.00;4989131;28;20022;-60
2021/12/19 07:58:43;;;;;;;4.45;2.00;;;;;;;5.80;89.63;103475.97;4990635;28;20044;-61
2021/12/19 08:01:09;;;;;;;4.53;2.28;;;;;;;5.74;89.53;103471.44;4989107;28;20033;-60
2021/12/19 08:03:34;;;;;;;6.22;2.30;;;;;;;5.81;89.64;103473.41;4991301;28;20440;-60
2021/12/19 08:05:59;;;;;;;9.65;2.42;;;;;;;5.74;89.77;103478.41;4991414;28;20461;-60
2021/12/19 08:08:32;;;;;;;7.63;2.95;;;;;;;5.81;89.95;103478.63;4989541;28;20255;-60
2021/12/19 08:13:41;;;;;;;4.35;2.72;;;;;;;5.90;89.53;103474.53;5005149;28;20176;-60
2021/12/19 08:16:06;;;;;;;5.80;2.33;;;;;;;5.90;89.34;103474.53;4986292;28;20085;-62
2021/12/19 08:18:32;;;;;;;4.75;2.47;;;;;;;5.90;88.88;103466.66;4970946;28;20037;-63
2021/12/19 08:20:57;;;;;;;5.43;2.05;;;;;;;5.83;89.20;103465.59;4997833;28;20527;-59
2021/12/19 08:23:22;;;;;;;2.92;1.75;;;;;;;5.84;89.29;103458.63;5004854;28;20034;-60
2021/12/19 08:25:48;;;;;;;3.88;1.63;;;;;;;5.93;89.01;103458.91;5004007;28;20025;-61
2021/12/19 08:28:13;;;;;;;3.28;1.42;;;;;;;5.97;89.02;103458.16;5006871;28;20029;-62
2021/12/19 08:30:38;;;;;;;3.20;1.20;;;;;;;5.98;88.86;103452.06;5002943;28;20092;-61
2021/12/19 08:33:04;;;;;;;3.58;1.40;;;;;;;5.99;88.78;103451.19;5008322;28;20028;-61
2021/12/19 08:35:29;;;;;;;1.65;1.20;;;;;;;6.06;88.79;103452.31;5008767;28;20018;-60
2021/12/19 08:37:54;;;;;;;1.95;1.30;;;;;;;6.10;88.87;103458.50;4990812;28;20357;-63
2021/12/19 08:40:22;;;;;;;3.55;1.58;;;;;;;6.09;88.80;103460.25;5008418;28;20536;-61
2021/12/19 08:42:48;;;;;;;3.95;1.80;;;;;;;6.04;88.84;103467.06;5008749;28;20026;-59
2021/12/19 08:45:15;;;;;;;3.40;1.30;;;;;;;6.13;88.83;103455.97;5007517;28;20449;-60
2021/12/19 08:47:40;;;;;;;4.22;1.80;;;;;;;6.15;88.24;103451.66;5008960;28;20076;-59
2021/12/19 08:50:08;;;;;;;2.97;1.50;;;;;;;6.22;88.15;103450.09;5007996;28;20026;-58
2021/12/19 08:52:33;;;;;;;3.50;1.90;;;;;;;6.28;87.80;103447.63;4990821;28;20060;-61
2021/12/19 08:54:59;;;;;;;2.72;1.63;;;;;;;6.28;87.96;103452.88;5007926;28;20487;-61
2021/12/19 08:57:24;;;;;;;5.63;2.05;;;;;;;6.37;87.34;103447.88;5008652;28;20037;-60
2021/12/19 08:59:49;;;;;;;4.85;1.70;;;;;;;6.35;87.61;103448.69;5001013;28;20026;-60
2021/12/19 09:02:15;;;;;;;3.47;1.63;;;;;;;6.39;87.11;103440.97;4992712;28;20019;-60
2021/12/19 09:04:40;;;;;;;4.47;2.03;;;;;;;6.35;87.67;103435.59;4994082;28;20458;-58
2021/12/19 09:07:05;;;;;;;4.40;1.75;;;;;;;6.34;87.33;103436.44;5001831;28;20108;-61
2021/12/19 09:09:31;;;;;;;3.25;1.70;;;;;;;6.28;87.82;103443.28;5000458;28;20490;-59
2021/12/19 09:11:56;;;;;;;3.03;1.52;;;;;;;6.21;87.91;103438.75;4989097;28;20042;-60
2021/12/19 09:14:22;;;;;;;6.22;1.30;;;;;;;6.29;87.49;103450.28;4975990;28;20034;-61
2021/12/19 09:16:47;;;;;;;1.70;1.20;;;;;;;6.38;86.95;103449.63;4986020;28;20117;-59
2021/12/19 09:19:13;;;;;;;2.88;1.80;;;;;;;6.42;86.94;103448.00;5007823;28;20037;-57
2021/12/19 09:21:39;;;;;;;2.25;1.73;;;;;;;6.48;87.07;103439.41;5007995;28;20495;-57
2021/12/19 09:24:04;;;;;;;2.35;1.30;;;;;;;6.51;87.02;103442.09;4990230;28;20034;-57
2021/12/19 09:26:30;;;;;;;6.50;1.63;;;;;;;6.57;86.95;103448.38;5007237;28;20099;-58
2021/12/19 09:28:55;;;;;;;5.15;1.63;;;;;;;6.53;86.99;103436.06;5007432;28;20037;-60
2021/12/19 09:31:24;;;;;;;1.75;1.52;;;;;;;6.56;86.81;103444.00;5008447;28;20032;-59
2021/12/19 09:33:49;;;;;;;3.67;1.75;;;;;;;6.54;87.00;103437.81;5009069;28;20037;-58
2021/12/19 09:36:14;;;;;;;2.70;1.92;;;;;;;6.39;87.67;103438.34;5007690;28;20026;-60
2021/12/19 09:38:41;;;;;;;3.67;1.60;;;;;;;6.45;87.46;103435.84;5007982;28;20026;-58
2021/12/19 09:41:15;;;;;;;5.90;1.75;;;;;;;6.59;86.63;103437.94;5006876;28;20116;-59
2021/12/19 09:43:41;;;;;;;2.88;1.30;;;;;;;6.57;86.27;103440.50;5008383;28;20488;-59
2021/12/19 09:46:10;;;;;;;3.03;1.65;;;;;;;6.67;85.78;103438.13;4989242;28;20333;-59
2021/12/19 09:48:37;;;;;;;2.72;1.50;;;;;;;6.62;85.59;103440.63;5008653;28;20471;-58
2021/12/19 09:51:03;;;;;;;4.85;1.73;;;;;;;6.74;85.46;103437.44;5009554;28;20033;-60
2021/12/19 09:53:28;;;;;;;1.30;1.20;;;;;;;6.90;83.97;103438.69;5013880;28;20038;-60
2021/12/19 09:55:53;;;;;;;2.28;1.50;;;;;;;6.86;84.11;103444.69;5006151;28;20113;-60
2021/12/19 09:58:19;;;;;;;3.65;1.10;;;;;;;6.92;83.85;103436.97;5006528;28;20049;-58
2021/12/19 10:00:44;;;;;;;1.02;0.90;;;;;;;7.00;83.29;103438.88;5004012;28;20065;-61
2021/12/19 10:03:11;;;;;;;1.73;1.30;;;;;;;7.06;82.25;103439.94;5005281;28;20101;-60
2021/12/19 10:05:36;;;;;;;0.88;0.88;;;;;;;7.05;82.22;103438.13;5005842;28;20034;-58
2021/12/19 10:08:03;;;;;;;3.53;1.20;;;;;;;6.98;82.95;103431.00;5006250;28;20030;-58
2021/12/19 10:10:48;;;;;;;2.85;1.00;;;;;;;6.94;82.64;103431.78;4985152;28;20048;-60
2021/12/19 10:13:14;;;;;;;2.95;1.20;;;;;;;7.06;82.72;103434.69;4998937;28;20051;-62
2021/12/19 10:15:42;;;;;;;1.15;0.70;;;;;;;7.08;82.96;103427.72;4997018;28;20053;-60
2021/12/19 10:18:13;;;;;;;1.40;0.60;;;;;;;7.11;82.67;103423.41;4996189;28;20381;-61
2021/12/19 10:20:57;;;;;;;2.88;0.90;;;;;;;6.99;83.50;103411.81;4985543;28;20413;-61
2021/12/19 10:23:30;;;;;;;0.55;0.50;;;;;;;6.93;84.10;103417.78;5004481;28;20052;-59
2021/12/19 10:26:07;;;;;;;1.92;0.95;;;;;;;6.91;84.44;103416.88;4999606;28;20415;-58
2021/12/19 10:28:49;;;;;;;1.27;1.00;;;;;;;6.85;84.60;103415.81;5001762;28;20096;-61
2021/12/19 10:31:15;;;;;;;4.90;0.98;;;;;;;6.79;84.68;103412.22;4985311;28;20461;-63
2021/12/19 10:33:41;;;;;;;1.10;0.80;;;;;;;6.81;85.00;103410.50;5006170;28;20061;-62
2021/12/19 10:36:07;;;;;;;1.80;0.98;;;;;;;6.89;84.58;103407.22;5000635;28;20033;-61
2021/12/19 10:38:41;;;;;;;1.30;1.20;;;;;;;6.86;84.62;103408.00;5002555;28;20392;-61
2021/12/19 10:41:24;;;;;;;4.90;1.98;;;;;;;6.86;84.77;103401.91;5004455;28;20542;-61
2021/12/19 10:44:01;;;;;;;5.45;1.92;;;;;;;6.92;84.33;103395.03;4988955;28;20034;-61
2021/12/19 10:46:35;;;;;;;4.25;2.40;;;;;;;6.93;83.58;103395.94;5001792;28;20026;-61
2021/12/19 10:49:02;;;;;;;9.55;2.90;;;;;;;6.99;83.30;103388.22;4984125;28;20125;-62
2021/12/19 10:51:30;;;;;;;7.93;3.22;;;;;;;6.89;83.99;103387.09;5000664;28;20032;-62
2021/12/19 10:53:57;;;;;;;11.10;3.42;;;;;;;7.01;83.40;103386.50;4999909;28;20411;-61
2021/12/19 10:56:34;;;;;;;12.38;3.70;;;;;;;7.00;83.30;103375.97;4993651;28;20081;-61
2021/12/19 10:59:02;;;;;;;8.63;3.17;;;;;;;7.01;83.23;103369.91;5005196;28;20045;-62
2021/12/19 11:01:36;;;;;;;10.68;2.95;;;;;;;7.06;82.25;103365.63;5004675;28;20603;-61
2021/12/19 11:04:04;;;;;;;16.10;4.53;;;;;;;7.03;81.42;103366.44;5002000;28;20472;-63
2021/12/19 11:06:41;;;;;;;12.38;3.83;;;;;;;7.05;81.56;103364.72;5002781;28;20022;-61
2021/12/19 11:09:11;;;;;;;10.77;3.80;;;;;;;6.96;81.87;103359.31;5000665;28;20507;-58
2021/12/19 11:11:42;;;;;;;16.42;3.30;;;;;;;6.88;81.62;103361.75;5000755;28;20029;-61
2021/12/19 11:14:16;;;;;;;14.82;3.60;;;;;;;6.82;82.31;103351.13;5002980;28;20018;-60
2021/12/19 11:16:42;;;;;;;12.95;3.92;;;;;;;6.87;81.65;103356.47;5001684;28;20087;-61
2021/12/19 11:19:08;;;;;;;10.73;3.38;;;;;;;6.83;81.31;103348.53;4997719;28;20049;-59
2021/12/19 11:21:35;;;;;;;12.93;3.15;;;;;;;6.87;80.94;103346.88;5004928;28;20030;-60
2021/12/19 11:24:07;;;;;;;11.05;3.30;;;;;;;6.85;81.57;103342.44;5002802;28;20019;-57
2021/12/19 11:26:33;;;;;;;12.70;3.20;;;;;;;6.96;81.00;103343.59;5002858;28;20423;-60
2021/12/19 11:28:59;;;;;;;7.13;3.33;;;;;;;6.97;81.00;103337.47;5000498;28;20044;-61
2021/12/19 11:31:31;;;;;;;12.48;3.38;;;;;;;7.00;81.32;103326.16;5004489;28;20472;-62
2021/12/19 11:34:15;;;;;;;12.80;3.28;;;;;;;7.08;80.30;103325.47;5003571;28;20156;-63
2021/12/19 11:36:44;;;;;;;14.48;3.67;;;;;;;7.05;80.68;103320.16;5005234;28;20034;-63
2021/12/19 11:39:10;;;;;;;12.95;3.17;;;;;;;7.08;80.32;103319.38;5005052;28;20445;-61
2021/12/19 11:41:35;;;;;;;6.07;2.35;;;;;;;7.06;80.12;103308.84;5003945;28;20041;-61
2021/12/19 11:44:05;;;;;;;8.77;2.67;;;;;;;7.14;80.06;103314.25;5002090;28;20165;-59
2021/12/19 11:46:44;;;;;;;12.85;3.55;;;;;;;7.13;79.91;103304.59;5004831;28;20377;-60
2021/12/19 11:49:15;;;;;;;13.98;3.72;;;;;;;7.16;79.68;103303.75;4985978;28;20029;-60
2021/12/19 11:51:41;;;;;;;11.02;3.28;;;;;;;7.18;79.64;103307.31;5005142;28;20376;-59
2021/12/19 11:54:17;;;;;;;12.23;3.80;;;;;;;7.13;79.62;103301.97;5004520;28;20032;-60
2021/12/19 11:57:06;;;;;;;14.27;3.30;;;;;;;7.12;79.80;103307.19;4969918;28;20042;-59
2021/12/19 11:59:31;;;;;;;13.27;3.90;;;;;;;7.12;80.05;103296.69;5001004;28;20479;-63
2021/12/19 12:02:22;;;;;;;10.52;3.25;;;;;;;7.09;80.24;103297.53;5004168;28;20018;-61
2021/12/19 12:05:17;;;;;;;13.57;4.43;;;;;;;7.03;80.47;103290.44;5005177;28;20489;-60
2021/12/19 12:08:04;;;;;;;13.88;4.15;;;;;;;7.04;80.63;103289.56;4968682;28;20054;-61
2021/12/19 12:10:52;;;;;;;10.57;3.45;;;;;;;7.12;79.87;103297.59;4985781;28;20046;-60
2021/12/19 12:13:38;;;;;;;17.58;2.95;;;;;;;7.05;78.65;103290.47;5004054;28;20042;-62
2021/12/19 12:16:14;;;;;;;9.25;2.80;;;;;;;7.02;79.04;103291.28;5002056;28;20041;-61
2021/12/19 12:18:43;;;;;;;13.07;2.95;;;;;;;6.99;79.29;103280.72;5003080;28;20034;-61
2021/12/19 12:24:00;;;;;;;14.45;5.80;;;;;;;6.94;79.69;103274.50;5004299;28;20042;-62
2021/12/19 12:26:39;;;;;;;12.80;2.67;;;;;;;6.83;80.65;103285.66;5004219;28;20457;-61
2021/12/19 12:29:05;;;;;;;8.75;2.75;;;;;;;6.86;81.11;103281.34;5004869;28;20084;-62
2021/12/19 12:31:30;;;;;;;13.80;3.20;;;;;;;6.68;82.27;103280.06;5003448;28;20485;-59
2021/12/19 12:33:56;;;;;;;8.57;2.60;;;;;;;6.73;82.42;103274.91;5001962;28;20073;-62
2021/12/19 12:36:22;;;;;;;8.00;2.53;;;;;;;6.65;82.03;103277.41;4993060;28;20030;-61
2021/12/19 12:38:51;;;;;;;10.38;2.35;;;;;;;6.48;82.91;103266.53;5003237;28;20034;-60
2021/12/19 12:44:08;;;;;;;9.05;1.73;;;;;;;6.48;81.08;103264.81;5004227;28;20037;-60